sensor_id;sensor_type;location;lat;lon;timestamp;temperature;humidity
65064;DHT22;51654;51.452;6.644;2022-08-19T05:58:04;19.90;67.40
65064;DHT22;51654;51.452;6.644;2022-08-19T06:00:34;20.00;67.30
65064;DHT22;51654;51.452;6.644;2022-08-19T06:03:01;20.20;66.50
65064;DHT22;51654;51.452;6.644;2022-08-19T06:05:39;20.40;66.00
65064;DHT22;51654;51.452;6.644;2022-08-19T06:08:16;20.50;65.40
65064;DHT22;51654;51.452;6.644;2022-08-19T06:10:45;20.80;65.00
65064;DHT22;51654;51.452;6.644;2022-08-19T06:13:11;21.00;64.30
65064;DHT22;51654;51.452;6.644;2022-08-19T06:15:38;21.20;63.70
65064;DHT22;51654;51.452;6.644;2022-08-19T06:18:05;21.40;63.10
65064;DHT22;51654;51.452;6.644;2022-08-19T06:20:32;21.50;62.50
65064;DHT22;51654;51.452;6.644;2022-08-19T06:23:19;21.70;62.20
65064;DHT22;51654;51.452;6.644;2022-08-19T06:25:49;21.80;61.80
65064;DHT22;51654;51.452;6.644;2022-08-19T06:28:16;21.90;61.20
65064;DHT22;51654;51.452;6.644;2022-08-19T06:30:43;22.00;61.00
65064;DHT22;51654;51.452;6.644;2022-08-19T06:33:11;21.90;60.40
65064;DHT22;51654;51.452;6.644;2022-08-19T06:35:38;21.90;60.90
65064;DHT22;51654;51.452;6.644;2022-08-19T06:38:05;22.00;60.70
65064;DHT22;51654;51.452;6.644;2022-08-19T06:40:32;22.20;60.50
65064;DHT22;51654;51.452;6.644;2022-08-19T06:42:59;22.30;60.10
65064;DHT22;51654;51.452;6.644;2022-08-19T06:45:31;22.40;60.10
65064;DHT22;51654;51.452;6.644;2022-08-19T06:48:01;22.40;59.70
65064;DHT22;51654;51.452;6.644;2022-08-19T06:50:28;22.40;59.80
65064;DHT22;51654;51.452;6.644;2022-08-19T06:52:55;22.60;59.50
65064;DHT22;51654;51.452;6.644;2022-08-19T06:55:23;23.00;58.80
65064;DHT22;51654;51.452;6.644;2022-08-19T06:57:50;23.50;57.70
65064;DHT22;51654;51.452;6.644;2022-08-19T07:00:20;23.80;57.00
65064;DHT22;51654;51.452;6.644;2022-08-19T07:02:47;24.10;56.10
65064;DHT22;51654;51.452;6.644;2022-08-19T07:05:24;24.50;55.20
65064;DHT22;51654;51.452;6.644;2022-08-19T07:07:51;24.80;54.50
65064;DHT22;51654;51.452;6.644;2022-08-19T07:10:23;25.20;53.70
65064;DHT22;51654;51.452;6.644;2022-08-19T07:12:51;25.50;52.50
65064;DHT22;51654;51.452;6.644;2022-08-19T07:15:18;25.90;51.80
65064;DHT22;51654;51.452;6.644;2022-08-19T07:17:47;26.10;51.00
65064;DHT22;51654;51.452;6.644;2022-08-19T07:20:18;26.40;50.30
65064;DHT22;51654;51.452;6.644;2022-08-19T07:22:45;26.50;49.60
65064;DHT22;51654;51.452;6.644;2022-08-19T07:25:11;26.50;49.50
65064;DHT22;51654;51.452;6.644;2022-08-19T07:27:39;26.70;49.00
65064;DHT22;51654;51.452;6.644;2022-08-19T07:30:07;26.90;48.50
65064;DHT22;51654;51.452;6.644;2022-08-19T07:32:38;27.10;47.80
65064;DHT22;51654;51.452;6.644;2022-08-19T07:35:06;27.20;47.50
65064;DHT22;51654;51.452;6.644;2022-08-19T07:37:33;27.40;47.10
65064;DHT22;51654;51.452;6.644;2022-08-19T07:40:02;27.50;46.60
65064;DHT22;51654;51.452;6.644;2022-08-19T07:42:30;27.50;46.50
65064;DHT22;51654;51.452;6.644;2022-08-19T07:44:58;27.50;46.40
65064;DHT22;51654;51.452;6.644;2022-08-19T07:47:25;27.20;46.50
65064;DHT22;51654;51.452;6.644;2022-08-19T07:50:14;26.80;47.20
65064;DHT22;51654;51.452;6.644;2022-08-19T07:52:41;26.60;47.80
65064;DHT22;51654;51.452;6.644;2022-08-19T07:55:15;26.80;47.90
65064;DHT22;51654;51.452;6.644;2022-08-19T07:58:02;27.20;47.10
65064;DHT22;51654;51.452;6.644;2022-08-19T08:00:30;27.70;46.30
65064;DHT22;51654;51.452;6.644;2022-08-19T08:02:57;27.90;45.40
65064;DHT22;51654;51.452;6.644;2022-08-19T08:05:24;28.20;45.00
65064;DHT22;51654;51.452;6.644;2022-08-19T08:08:10;28.40;44.40
65064;DHT22;51654;51.452;6.644;2022-08-19T08:10:59;28.50;44.00
65064;DHT22;51654;51.452;6.644;2022-08-19T08:13:27;28.70;43.60
65064;DHT22;51654;51.452;6.644;2022-08-19T08:15:57;28.60;43.20
65064;DHT22;51654;51.452;6.644;2022-08-19T08:18:24;28.20;43.90
65064;DHT22;51654;51.452;6.644;2022-08-19T08:20:56;27.80;44.30
65064;DHT22;51654;51.452;6.644;2022-08-19T08:23:23;27.50;44.80
65064;DHT22;51654;51.452;6.644;2022-08-19T08:25:53;27.50;45.10
65064;DHT22;51654;51.452;6.644;2022-08-19T08:28:21;27.40;45.00
65064;DHT22;51654;51.452;6.644;2022-08-19T08:30:49;27.30;45.30
65064;DHT22;51654;51.452;6.644;2022-08-19T08:33:20;27.40;45.20
65064;DHT22;51654;51.452;6.644;2022-08-19T08:36:09;27.70;44.70
65064;DHT22;51654;51.452;6.644;2022-08-19T08:38:37;28.00;44.10
65064;DHT22;51654;51.452;6.644;2022-08-19T08:43:49;28.20;43.60
65064;DHT22;51654;51.452;6.644;2022-08-19T08:46:20;28.50;43.10
65064;DHT22;51654;51.452;6.644;2022-08-19T08:49:14;28.50;42.70
65064;DHT22;51654;51.452;6.644;2022-08-19T08:51:47;28.70;42.50
65064;DHT22;51654;51.452;6.644;2022-08-19T08:54:25;29.00;41.90
65064;DHT22;51654;51.452;6.644;2022-08-19T08:56:56;29.40;41.40
65064;DHT22;51654;51.452;6.644;2022-08-19T08:59:24;29.40;40.50
65064;DHT22;51654;51.452;6.644;2022-08-19T09:01:52;29.30;40.70
65064;DHT22;51654;51.452;6.644;2022-08-19T09:04:20;29.30;40.30
65064;DHT22;51654;51.452;6.644;2022-08-19T09:11:56;29.70;39.40
65064;DHT22;51654;51.452;6.644;2022-08-19T09:17:26;29.60;38.70
65064;DHT22;51654;51.452;6.644;2022-08-19T09:19:59;29.70;38.80
65064;DHT22;51654;51.452;6.644;2022-08-19T09:22:31;29.90;38.70
65064;DHT22;51654;51.452;6.644;2022-08-19T09:24:57;30.00;38.40
65064;DHT22;51654;51.452;6.644;2022-08-19T09:27:25;29.80;38.40
65064;DHT22;51654;51.452;6.644;2022-08-19T09:30:19;29.50;38.90
65064;DHT22;51654;51.452;6.644;2022-08-19T09:32:48;29.50;38.90
65064;DHT22;51654;51.452;6.644;2022-08-19T09:35:19;29.50;38.80
65064;DHT22;51654;51.452;6.644;2022-08-19T09:37:46;29.60;38.40
65064;DHT22;51654;51.452;6.644;2022-08-19T09:40:12;29.40;38.20
65064;DHT22;51654;51.452;6.644;2022-08-19T09:42:41;29.10;38.70
65064;DHT22;51654;51.452;6.644;2022-08-19T09:45:17;29.00;39.30
65064;DHT22;51654;51.452;6.644;2022-08-19T09:47:44;28.90;39.20
65064;DHT22;51654;51.452;6.644;2022-08-19T09:50:12;28.90;39.40
65064;DHT22;51654;51.452;6.644;2022-08-19T09:52:42;29.00;39.20
65064;DHT22;51654;51.452;6.644;2022-08-19T09:55:24;29.10;39.40
65064;DHT22;51654;51.452;6.644;2022-08-19T09:57:59;29.40;39.30
65064;DHT22;51654;51.452;6.644;2022-08-19T10:00:27;29.70;38.60
65064;DHT22;51654;51.452;6.644;2022-08-19T10:02:54;29.80;38.30
65064;DHT22;51654;51.452;6.644;2022-08-19T10:05:21;29.80;37.90
65064;DHT22;51654;51.452;6.644;2022-08-19T10:08:09;30.00;37.70
65064;DHT22;51654;51.452;6.644;2022-08-19T10:10:41;30.10;37.50
65064;DHT22;51654;51.452;6.644;2022-08-19T10:13:18;30.00;37.20
65064;DHT22;51654;51.452;6.644;2022-08-19T10:15:46;30.10;37.50
65064;DHT22;51654;51.452;6.644;2022-08-19T10:18:15;30.10;37.20
65064;DHT22;51654;51.452;6.644;2022-08-19T10:20:46;30.10;37.10
65064;DHT22;51654;51.452;6.644;2022-08-19T10:23:18;30.00;37.10
65064;DHT22;51654;51.452;6.644;2022-08-19T10:25:45;30.10;37.10
65064;DHT22;51654;51.452;6.644;2022-08-19T10:28:13;30.10;37.10
65064;DHT22;51654;51.452;6.644;2022-08-19T10:30:41;30.10;36.90
65064;DHT22;51654;51.452;6.644;2022-08-19T10:33:09;30.10;36.90
65064;DHT22;51654;51.452;6.644;2022-08-19T10:35:40;30.00;37.10
65064;DHT22;51654;51.452;6.644;2022-08-19T10:38:23;29.80;37.50
65064;DHT22;51654;51.452;6.644;2022-08-19T10:40:58;29.70;37.50
65064;DHT22;51654;51.452;6.644;2022-08-19T10:43:25;29.50;37.70
65064;DHT22;51654;51.452;6.644;2022-08-19T10:45:52;29.50;37.70
65064;DHT22;51654;51.452;6.644;2022-08-19T10:48:22;29.50;37.50
65064;DHT22;51654;51.452;6.644;2022-08-19T10:50:49;29.50;37.60
65064;DHT22;51654;51.452;6.644;2022-08-19T10:53:34;29.50;37.20
65064;DHT22;51654;51.452;6.644;2022-08-19T10:56:01;29.50;37.10
65064;DHT22;51654;51.452;6.644;2022-08-19T10:58:47;29.20;37.50
65064;DHT22;51654;51.452;6.644;2022-08-19T11:01:15;29.00;38.10
65064;DHT22;51654;51.452;6.644;2022-08-19T11:03:42;29.10;38.00
65064;DHT22;51654;51.452;6.644;2022-08-19T11:06:09;29.10;37.60
65064;DHT22;51654;51.452;6.644;2022-08-19T11:08:36;29.00;37.50
65064;DHT22;51654;51.452;6.644;2022-08-19T11:11:04;28.90;38.40
65064;DHT22;51654;51.452;6.644;2022-08-19T11:13:33;29.00;38.50
65064;DHT22;51654;51.452;6.644;2022-08-19T11:16:05;29.20;38.10
65064;DHT22;51654;51.452;6.644;2022-08-19T11:18:34;29.10;37.90
65064;DHT22;51654;51.452;6.644;2022-08-19T11:21:06;29.00;37.30
65064;DHT22;51654;51.452;6.644;2022-08-19T11:23:33;29.00;37.50
65064;DHT22;51654;51.452;6.644;2022-08-19T11:26:00;29.00;37.40
65064;DHT22;51654;51.452;6.644;2022-08-19T11:28:27;29.00;37.40
65064;DHT22;51654;51.452;6.644;2022-08-19T11:30:55;28.90;37.30
65064;DHT22;51654;51.452;6.644;2022-08-19T11:33:21;28.90;36.80
65064;DHT22;51654;51.452;6.644;2022-08-19T11:35:48;28.90;37.40
65064;DHT22;51654;51.452;6.644;2022-08-19T11:38:15;28.80;37.00
65064;DHT22;51654;51.452;6.644;2022-08-19T11:40:42;28.90;36.70
65064;DHT22;51654;51.452;6.644;2022-08-19T11:43:09;28.90;36.90
65064;DHT22;51654;51.452;6.644;2022-08-19T11:45:36;28.90;37.20
65064;DHT22;51654;51.452;6.644;2022-08-19T11:48:08;28.90;37.50
65064;DHT22;51654;51.452;6.644;2022-08-19T11:50:35;28.90;37.20
65064;DHT22;51654;51.452;6.644;2022-08-19T11:53:02;29.00;36.80
65064;DHT22;51654;51.452;6.644;2022-08-19T11:55:31;28.90;36.30
65064;DHT22;51654;51.452;6.644;2022-08-19T11:57:58;28.90;36.60
65064;DHT22;51654;51.452;6.644;2022-08-19T12:00:25;28.90;36.60
65064;DHT22;51654;51.452;6.644;2022-08-19T12:02:53;28.90;36.80
65064;DHT22;51654;51.452;6.644;2022-08-19T12:05:21;29.00;37.20
65064;DHT22;51654;51.452;6.644;2022-08-19T12:07:48;29.10;36.20
65064;DHT22;51654;51.452;6.644;2022-08-19T12:10:14;29.20;36.00
65064;DHT22;51654;51.452;6.644;2022-08-19T12:12:45;29.30;35.50
65064;DHT22;51654;51.452;6.644;2022-08-19T12:15:24;29.30;35.10
65064;DHT22;51654;51.452;6.644;2022-08-19T12:18:08;29.20;34.80
65064;DHT22;51654;51.452;6.644;2022-08-19T12:20:38;29.00;35.10
65064;DHT22;51654;51.452;6.644;2022-08-19T12:23:06;29.00;35.20
65064;DHT22;51654;51.452;6.644;2022-08-19T12:25:33;29.00;35.10
65064;DHT22;51654;51.452;6.644;2022-08-19T12:28:04;29.00;35.20
65064;DHT22;51654;51.452;6.644;2022-08-19T12:30:30;29.10;35.30
65064;DHT22;51654;51.452;6.644;2022-08-19T12:32:57;29.00;35.10
65064;DHT22;51654;51.452;6.644;2022-08-19T12:35:24;28.90;35.10
65064;DHT22;51654;51.452;6.644;2022-08-19T12:37:51;28.80;35.30
65064;DHT22;51654;51.452;6.644;2022-08-19T12:40:23;28.80;34.90
65064;DHT22;51654;51.452;6.644;2022-08-19T12:42:52;28.70;35.20
65064;DHT22;51654;51.452;6.644;2022-08-19T12:45:19;28.50;35.80
65064;DHT22;51654;51.452;6.644;2022-08-19T12:47:46;28.40;35.50
65064;DHT22;51654;51.452;6.644;2022-08-19T12:50:15;28.30;36.20
65064;DHT22;51654;51.452;6.644;2022-08-19T12:52:42;28.20;36.20
65064;DHT22;51654;51.452;6.644;2022-08-19T12:55:09;28.20;36.80
65064;DHT22;51654;51.452;6.644;2022-08-19T12:57:37;28.40;36.50
65064;DHT22;51654;51.452;6.644;2022-08-19T13:00:14;28.50;36.30
65064;DHT22;51654;51.452;6.644;2022-08-19T13:02:44;28.60;36.10
65064;DHT22;51654;51.452;6.644;2022-08-19T13:05:18;28.80;36.00
65064;DHT22;51654;51.452;6.644;2022-08-19T13:07:50;28.80;35.50
65064;DHT22;51654;51.452;6.644;2022-08-19T13:10:19;28.70;35.60
65064;DHT22;51654;51.452;6.644;2022-08-19T13:12:49;28.60;35.40
65064;DHT22;51654;51.452;6.644;2022-08-19T13:15:18;28.60;35.60
65064;DHT22;51654;51.452;6.644;2022-08-19T13:17:51;28.50;35.60
65064;DHT22;51654;51.452;6.644;2022-08-19T13:20:20;28.60;35.30
65064;DHT22;51654;51.452;6.644;2022-08-19T13:22:48;28.50;35.40
65064;DHT22;51654;51.452;6.644;2022-08-19T13:25:16;28.50;35.50
65064;DHT22;51654;51.452;6.644;2022-08-19T13:27:50;28.50;35.20
65064;DHT22;51654;51.452;6.644;2022-08-19T13:30:18;28.50;35.00
65064;DHT22;51654;51.452;6.644;2022-08-19T13:33:04;28.50;35.40
65064;DHT22;51654;51.452;6.644;2022-08-19T13:35:50;28.40;35.70
65064;DHT22;51654;51.452;6.644;2022-08-19T13:38:23;28.30;35.50
65064;DHT22;51654;51.452;6.644;2022-08-19T13:40:52;28.10;35.90
65064;DHT22;51654;51.452;6.644;2022-08-19T13:43:22;28.10;36.40
65064;DHT22;51654;51.452;6.644;2022-08-19T13:45:51;28.00;36.60
65064;DHT22;51654;51.452;6.644;2022-08-19T13:48:20;28.00;36.70
65064;DHT22;51654;51.452;6.644;2022-08-19T13:50:47;28.10;36.50
65064;DHT22;51654;51.452;6.644;2022-08-19T13:53:16;28.20;36.50
65064;DHT22;51654;51.452;6.644;2022-08-19T13:55:44;28.20;36.50
65064;DHT22;51654;51.452;6.644;2022-08-19T13:58:11;28.20;36.50
65064;DHT22;51654;51.452;6.644;2022-08-19T14:00:41;28.00;36.90
65064;DHT22;51654;51.452;6.644;2022-08-19T14:03:08;27.90;37.20
65064;DHT22;51654;51.452;6.644;2022-08-19T14:05:37;28.00;37.40
65064;DHT22;51654;51.452;6.644;2022-08-19T14:08:05;27.90;37.70
65064;DHT22;51654;51.452;6.644;2022-08-19T14:10:32;27.90;38.00
65064;DHT22;51654;51.452;6.644;2022-08-19T14:13:00;27.90;37.80
65064;DHT22;51654;51.452;6.644;2022-08-19T14:15:27;27.90;37.30
65064;DHT22;51654;51.452;6.644;2022-08-19T14:17:54;27.90;36.80
65064;DHT22;51654;51.452;6.644;2022-08-19T14:20:22;27.80;37.00
65064;DHT22;51654;51.452;6.644;2022-08-19T14:22:52;27.70;37.20
65064;DHT22;51654;51.452;6.644;2022-08-19T14:25:20;27.60;37.80
65064;DHT22;51654;51.452;6.644;2022-08-19T14:27:48;27.60;37.90
65064;DHT22;51654;51.452;6.644;2022-08-19T14:30:18;27.70;37.10
65064;DHT22;51654;51.452;6.644;2022-08-19T14:32:52;27.50;36.80
65064;DHT22;51654;51.452;6.644;2022-08-19T14:35:21;27.50;36.90
65064;DHT22;51654;51.452;6.644;2022-08-19T14:37:49;27.40;36.50
65064;DHT22;51654;51.452;6.644;2022-08-19T14:40:17;27.30;35.80
65064;DHT22;51654;51.452;6.644;2022-08-19T14:42:47;27.40;35.90
65064;DHT22;51654;51.452;6.644;2022-08-19T14:45:15;27.30;35.20
65064;DHT22;51654;51.452;6.644;2022-08-19T14:47:42;27.20;35.80
65064;DHT22;51654;51.452;6.644;2022-08-19T14:50:11;27.20;36.30
65064;DHT22;51654;51.452;6.644;2022-08-19T14:52:44;27.10;36.90
65064;DHT22;51654;51.452;6.644;2022-08-19T14:55:14;27.10;37.20
65064;DHT22;51654;51.452;6.644;2022-08-19T14:57:41;27.10;37.30
65064;DHT22;51654;51.452;6.644;2022-08-19T15:00:09;27.10;37.00
65064;DHT22;51654;51.452;6.644;2022-08-19T15:02:44;27.10;37.30
65064;DHT22;51654;51.452;6.644;2022-08-19T15:05:12;27.00;37.30
65064;DHT22;51654;51.452;6.644;2022-08-19T15:07:39;27.10;37.10
65064;DHT22;51654;51.452;6.644;2022-08-19T15:10:06;27.00;37.00
65064;DHT22;51654;51.452;6.644;2022-08-19T15:12:34;27.00;37.20
65064;DHT22;51654;51.452;6.644;2022-08-19T15:15:01;27.00;37.50
65064;DHT22;51654;51.452;6.644;2022-08-19T15:17:28;27.00;37.80
65064;DHT22;51654;51.452;6.644;2022-08-19T15:20:12;26.90;37.60
65064;DHT22;51654;51.452;6.644;2022-08-19T15:22:39;26.80;37.40
65064;DHT22;51654;51.452;6.644;2022-08-19T15:25:10;26.60;38.00
65064;DHT22;51654;51.452;6.644;2022-08-19T15:27:37;26.60;38.40
65064;DHT22;51654;51.452;6.644;2022-08-19T15:30:06;26.70;38.60
65064;DHT22;51654;51.452;6.644;2022-08-19T15:32:35;26.60;38.70
65064;DHT22;51654;51.452;6.644;2022-08-19T15:35:02;26.50;38.80
65064;DHT22;51654;51.452;6.644;2022-08-19T15:37:30;26.50;39.20
65064;DHT22;51654;51.452;6.644;2022-08-19T15:39:57;26.50;39.40
65064;DHT22;51654;51.452;6.644;2022-08-19T15:42:25;26.50;38.60
65064;DHT22;51654;51.452;6.644;2022-08-19T15:44:56;26.50;38.40
65064;DHT22;51654;51.452;6.644;2022-08-19T15:47:30;26.50;38.40
65064;DHT22;51654;51.452;6.644;2022-08-19T15:50:19;26.50;38.40
65064;DHT22;51654;51.452;6.644;2022-08-19T15:52:48;26.60;38.40
65064;DHT22;51654;51.452;6.644;2022-08-19T15:55:17;26.60;38.30
65064;DHT22;51654;51.452;6.644;2022-08-19T15:58:00;26.50;38.90
65064;DHT22;51654;51.452;6.644;2022-08-19T16:00:55;26.50;39.50
65064;DHT22;51654;51.452;6.644;2022-08-19T16:03:41;26.50;39.70
65064;DHT22;51654;51.452;6.644;2022-08-19T16:06:26;26.40;39.90
65064;DHT22;51654;51.452;6.644;2022-08-19T16:08:54;26.30;40.30
65064;DHT22;51654;51.452;6.644;2022-08-19T16:11:22;26.20;40.60
65064;DHT22;51654;51.452;6.644;2022-08-19T16:13:55;26.10;40.70
65064;DHT22;51654;51.452;6.644;2022-08-19T16:16:25;26.00;41.10
65064;DHT22;51654;51.452;6.644;2022-08-19T16:19:00;26.00;40.70
65064;DHT22;51654;51.452;6.644;2022-08-19T16:21:28;25.90;41.20
65064;DHT22;51654;51.452;6.644;2022-08-19T16:23:59;25.90;41.40
65064;DHT22;51654;51.452;6.644;2022-08-19T16:26:27;25.90;41.80
65064;DHT22;51654;51.452;6.644;2022-08-19T16:28:59;25.80;42.10
65064;DHT22;51654;51.452;6.644;2022-08-19T16:31:26;25.90;42.30
65064;DHT22;51654;51.452;6.644;2022-08-19T16:33:54;25.80;42.40
65064;DHT22;51654;51.452;6.644;2022-08-19T16:36:21;25.80;42.70
65064;DHT22;51654;51.452;6.644;2022-08-19T16:38:50;25.70;42.90
65064;DHT22;51654;51.452;6.644;2022-08-19T16:41:31;25.70;43.00
65064;DHT22;51654;51.452;6.644;2022-08-19T16:43:57;25.60;43.10
65064;DHT22;51654;51.452;6.644;2022-08-19T16:46:25;25.60;43.20
65064;DHT22;51654;51.452;6.644;2022-08-19T16:48:56;25.60;43.50
65064;DHT22;51654;51.452;6.644;2022-08-19T16:51:26;25.70;43.70
65064;DHT22;51654;51.452;6.644;2022-08-19T16:53:57;25.60;43.90
65064;DHT22;51654;51.452;6.644;2022-08-19T16:56:24;25.60;44.00
65064;DHT22;51654;51.452;6.644;2022-08-19T16:58:51;25.70;44.00
65064;DHT22;51654;51.452;6.644;2022-08-19T17:01:18;25.70;44.00
65064;DHT22;51654;51.452;6.644;2022-08-19T17:03:45;25.70;44.00
65064;DHT22;51654;51.452;6.644;2022-08-19T17:06:16;25.60;44.20
65064;DHT22;51654;51.452;6.644;2022-08-19T17:08:47;25.70;44.30
65064;DHT22;51654;51.452;6.644;2022-08-19T17:11:15;25.60;44.40
65064;DHT22;51654;51.452;6.644;2022-08-19T17:13:44;25.60;44.50
65064;DHT22;51654;51.452;6.644;2022-08-19T17:16:14;25.60;44.60
65064;DHT22;51654;51.452;6.644;2022-08-19T17:18:41;25.50;44.70
65064;DHT22;51654;51.452;6.644;2022-08-19T17:21:11;25.50;44.90
65064;DHT22;51654;51.452;6.644;2022-08-19T17:23:38;25.40;45.20
65064;DHT22;51654;51.452;6.644;2022-08-19T17:26:12;25.30;45.50
65064;DHT22;51654;51.452;6.644;2022-08-19T17:28:47;25.30;45.90
65064;DHT22;51654;51.452;6.644;2022-08-19T17:31:18;25.20;46.10
65064;DHT22;51654;51.452;6.644;2022-08-19T17:33:45;25.20;46.40
65064;DHT22;51654;51.452;6.644;2022-08-19T17:36:14;25.10;46.80
65064;DHT22;51654;51.452;6.644;2022-08-19T17:38:41;25.10;47.00
65064;DHT22;51654;51.452;6.644;2022-08-19T17:41:08;25.10;47.30
65064;DHT22;51654;51.452;6.644;2022-08-19T17:43:37;25.00;47.50
65064;DHT22;51654;51.452;6.644;2022-08-19T17:46:09;25.00;47.70
65064;DHT22;51654;51.452;6.644;2022-08-19T17:48:43;25.00;47.80
65064;DHT22;51654;51.452;6.644;2022-08-19T17:51:21;25.10;48.00
65064;DHT22;51654;51.452;6.644;2022-08-19T17:53:49;25.00;48.10
65064;DHT22;51654;51.452;6.644;2022-08-19T17:56:17;25.10;48.10
65064;DHT22;51654;51.452;6.644;2022-08-19T17:58:44;25.00;48.40
65064;DHT22;51654;51.452;6.644;2022-08-19T18:01:23;25.00;48.50
65064;DHT22;51654;51.452;6.644;2022-08-19T18:03:52;24.90;48.90
65064;DHT22;51654;51.452;6.644;2022-08-19T18:06:19;24.80;49.10
65064;DHT22;51654;51.452;6.644;2022-08-19T18:08:45;24.70;49.30
65064;DHT22;51654;51.452;6.644;2022-08-19T18:11:14;24.70;49.40
65064;DHT22;51654;51.452;6.644;2022-08-19T18:13:41;24.60;49.60
65064;DHT22;51654;51.452;6.644;2022-08-19T18:16:08;24.60;49.70
65064;DHT22;51654;51.452;6.644;2022-08-19T18:18:37;24.60;49.90
65064;DHT22;51654;51.452;6.644;2022-08-19T18:21:05;24.60;50.00
65064;DHT22;51654;51.452;6.644;2022-08-19T18:23:32;24.60;50.00
65064;DHT22;51654;51.452;6.644;2022-08-19T18:26:11;24.50;50.20
65064;DHT22;51654;51.452;6.644;2022-08-19T18:28:38;24.50;50.40
65064;DHT22;51654;51.452;6.644;2022-08-19T18:31:15;24.50;50.40
65064;DHT22;51654;51.452;6.644;2022-08-19T18:33:43;24.50;50.40
65064;DHT22;51654;51.452;6.644;2022-08-19T18:36:10;24.50;50.50
65064;DHT22;51654;51.452;6.644;2022-08-19T18:38:40;24.50;50.40
65064;DHT22;51654;51.452;6.644;2022-08-19T18:41:33;24.50;50.40
65064;DHT22;51654;51.452;6.644;2022-08-19T18:44:19;24.50;50.40
65064;DHT22;51654;51.452;6.644;2022-08-19T18:47:05;24.40;50.50
65064;DHT22;51654;51.452;6.644;2022-08-19T18:49:51;24.30;50.60
65064;DHT22;51654;51.452;6.644;2022-08-19T18:52:18;24.30;50.60
65064;DHT22;51654;51.452;6.644;2022-08-19T18:54:47;24.30;50.70
65064;DHT22;51654;51.452;6.644;2022-08-19T18:57:14;24.30;50.70
65064;DHT22;51654;51.452;6.644;2022-08-19T18:59:42;24.30;50.80
65064;DHT22;51654;51.452;6.644;2022-08-19T19:02:09;24.30;50.90
65064;DHT22;51654;51.452;6.644;2022-08-19T19:04:43;24.30;50.90
65064;DHT22;51654;51.452;6.644;2022-08-19T19:07:11;24.30;50.90
65064;DHT22;51654;51.452;6.644;2022-08-19T19:09:39;24.30;51.00
65064;DHT22;51654;51.452;6.644;2022-08-19T19:12:08;24.20;51.10
65064;DHT22;51654;51.452;6.644;2022-08-19T19:14:36;24.20;51.30
65064;DHT22;51654;51.452;6.644;2022-08-19T19:17:15;24.10;51.50
65064;DHT22;51654;51.452;6.644;2022-08-19T19:19:42;24.10;51.60
65064;DHT22;51654;51.452;6.644;2022-08-19T19:22:10;24.00;51.80
65064;DHT22;51654;51.452;6.644;2022-08-19T19:24:39;24.10;51.90
65064;DHT22;51654;51.452;6.644;2022-08-19T19:27:06;24.10;52.00
65064;DHT22;51654;51.452;6.644;2022-08-19T19:29:34;24.10;52.20
65064;DHT22;51654;51.452;6.644;2022-08-19T19:32:05;24.00;52.50
65064;DHT22;51654;51.452;6.644;2022-08-19T19:34:32;24.10;52.60
65064;DHT22;51654;51.452;6.644;2022-08-19T19:36:59;24.10;52.50
65064;DHT22;51654;51.452;6.644;2022-08-19T19:39:26;24.00;52.70
65064;DHT22;51654;51.452;6.644;2022-08-19T19:42:13;24.00;52.80
65064;DHT22;51654;51.452;6.644;2022-08-19T19:44:46;24.00;53.00
65064;DHT22;51654;51.452;6.644;2022-08-19T19:47:14;24.00;53.00
65064;DHT22;51654;51.452;6.644;2022-08-19T19:49:41;24.00;53.20
65064;DHT22;51654;51.452;6.644;2022-08-19T19:52:28;24.00;53.50
65064;DHT22;51654;51.452;6.644;2022-08-19T19:54:55;24.00;53.50
65064;DHT22;51654;51.452;6.644;2022-08-19T19:57:22;24.00;53.70
65064;DHT22;51654;51.452;6.644;2022-08-19T19:59:49;24.00;53.80
65064;DHT22;51654;51.452;6.644;2022-08-19T20:02:17;24.00;53.90
65064;DHT22;51654;51.452;6.644;2022-08-19T20:04:44;23.90;54.10
65064;DHT22;51654;51.452;6.644;2022-08-19T20:07:11;23.90;54.20
65064;DHT22;51654;51.452;6.644;2022-08-19T20:09:37;23.90;54.40
65064;DHT22;51654;51.452;6.644;2022-08-19T20:12:24;23.80;54.30
65064;DHT22;51654;51.452;6.644;2022-08-19T20:14:51;23.80;54.40
65064;DHT22;51654;51.452;6.644;2022-08-19T20:17:18;23.80;54.40
65064;DHT22;51654;51.452;6.644;2022-08-19T20:19:49;23.80;54.50
65064;DHT22;51654;51.452;6.644;2022-08-19T20:22:16;23.80;54.60
65064;DHT22;51654;51.452;6.644;2022-08-19T20:24:44;23.70;54.80
65064;DHT22;51654;51.452;6.644;2022-08-19T20:27:12;23.70;55.00
65064;DHT22;51654;51.452;6.644;2022-08-19T20:29:39;23.50;55.20
65064;DHT22;51654;51.452;6.644;2022-08-19T20:32:10;23.30;55.60
65064;DHT22;51654;51.452;6.644;2022-08-19T20:34:38;23.10;56.40
65064;DHT22;51654;51.452;6.644;2022-08-19T20:37:05;22.90;57.30
65064;DHT22;51654;51.452;6.644;2022-08-19T20:39:35;22.60;58.00
65064;DHT22;51654;51.452;6.644;2022-08-19T20:42:02;22.50;59.00
65064;DHT22;51654;51.452;6.644;2022-08-19T20:44:29;22.30;59.80
65064;DHT22;51654;51.452;6.644;2022-08-19T20:46:55;22.20;60.50
65064;DHT22;51654;51.452;6.644;2022-08-19T20:49:29;22.00;60.80
65064;DHT22;51654;51.452;6.644;2022-08-19T20:51:55;22.00;61.20
65064;DHT22;51654;51.452;6.644;2022-08-19T20:54:22;22.00;61.50
65064;DHT22;51654;51.452;6.644;2022-08-19T20:56:49;21.90;61.90
65064;DHT22;51654;51.452;6.644;2022-08-19T20:59:17;21.80;62.20
65064;DHT22;51654;51.452;6.644;2022-08-19T21:01:45;21.70;62.60
65064;DHT22;51654;51.452;6.644;2022-08-19T21:04:12;21.60;63.20
65064;DHT22;51654;51.452;6.644;2022-08-19T21:06:39;21.50;63.50
65064;DHT22;51654;51.452;6.644;2022-08-19T21:09:10;21.50;63.90
65064;DHT22;51654;51.452;6.644;2022-08-19T21:11:37;21.40;64.40
65064;DHT22;51654;51.452;6.644;2022-08-19T21:14:04;21.30;64.90
65064;DHT22;51654;51.452;6.644;2022-08-19T21:16:31;21.30;65.10
65064;DHT22;51654;51.452;6.644;2022-08-19T21:19:00;21.20;65.40
65064;DHT22;51654;51.452;6.644;2022-08-19T21:21:29;21.20;65.60
65064;DHT22;51654;51.452;6.644;2022-08-19T21:23:56;21.20;65.70
65064;DHT22;51654;51.452;6.644;2022-08-19T21:26:23;21.30;65.90
65064;DHT22;51654;51.452;6.644;2022-08-19T21:28:52;21.20;65.90
65064;DHT22;51654;51.452;6.644;2022-08-19T21:31:19;21.20;66.30
65064;DHT22;51654;51.452;6.644;2022-08-19T21:33:46;21.20;66.50
65064;DHT22;51654;51.452;6.644;2022-08-19T21:36:13;21.20;66.70
65064;DHT22;51654;51.452;6.644;2022-08-19T21:38:40;21.20;66.70
65064;DHT22;51654;51.452;6.644;2022-08-19T21:41:07;21.20;66.80
65064;DHT22;51654;51.452;6.644;2022-08-19T21:43:34;21.20;67.00
65064;DHT22;51654;51.452;6.644;2022-08-19T21:46:02;21.20;67.30
65064;DHT22;51654;51.452;6.644;2022-08-19T21:48:29;21.10;67.70
65064;DHT22;51654;51.452;6.644;2022-08-19T21:50:55;21.10;67.90
65064;DHT22;51654;51.452;6.644;2022-08-19T21:53:22;21.00;68.20
65064;DHT22;51654;51.452;6.644;2022-08-19T21:55:57;21.00;68.40